Time;durP1;ratioP1;P1;durP2;ratioP2;P2;SDS_P1;SDS_P2;PMS_P1;PMS_P2;Temp;Humidity;BMP_temperature;BMP_pressure;BME280_temperature;BME280_humidity;BME280_pressure;Samples;Min_cycle;Max_cycle;Signal;HPM_P1;HPM_P2
2023/10/28 00:01:11;;;;;;;1.05;0.22;;;12.80;99.90;;;;;;6198009;23;20012;-65
2023/10/28 00:03:37;;;;;;;1.35;0.40;;;12.80;99.90;;;;;;6197742;23;20000;-65
2023/10/28 00:06:02;;;;;;;0.75;0.25;;;12.80;99.90;;;;;;6197683;23;20000;-69
2023/10/28 00:08:28;;;;;;;0.50;0.20;;;12.80;99.90;;;;;;6198234;23;20429;-62
2023/10/28 00:10:54;;;;;;;1.52;0.22;;;12.80;99.90;;;;;;6197230;23;20139;-63
2023/10/28 00:13:19;;;;;;;0.40;0.30;;;12.80;99.90;;;;;;6196873;23;20008;-63
2023/10/28 00:15:45;;;;;;;0.30;0.22;;;12.80;99.90;;;;;;6197619;23;20473;-64
2023/10/28 00:18:11;;;;;;;0.65;0.22;;;12.90;99.90;;;;;;6199102;23;20775;-66
2023/10/28 00:20:37;;;;;;;2.13;0.22;;;12.90;99.90;;;;;;6197639;23;20257;-66
2023/10/28 00:23:03;;;;;;;0.82;0.25;;;12.90;99.90;;;;;;6199011;23;20154;-64
2023/10/28 00:25:31;;;;;;;1.42;0.20;;;12.90;99.90;;;;;;6194351;23;20028;-66
2023/10/28 00:27:57;;;;;;;0.30;0.20;;;12.90;99.90;;;;;;6196559;23;20560;-66
2023/10/28 00:30:24;;;;;;;0.50;0.22;;;13.00;99.90;;;;;;6197413;23;20395;-67
2023/10/28 00:32:52;;;;;;;1.65;0.10;;;12.90;99.90;;;;;;6196507;23;20043;-66
2023/10/28 00:35:18;;;;;;;2.42;0.80;;;13.00;99.90;;;;;;6197150;23;20032;-66
2023/10/28 00:37:44;;;;;;;1.20;0.25;;;13.00;99.90;;;;;;6198445;23;20134;-67
2023/10/28 00:40:11;;;;;;;1.67;0.38;;;13.10;99.90;;;;;;6199497;23;20374;-66
2023/10/28 00:42:38;;;;;;;0.55;0.30;;;13.10;99.90;;;;;;6196258;23;20456;-66
2023/10/28 00:45:05;;;;;;;0.63;0.20;;;13.20;99.90;;;;;;6195260;23;20001;-67
2023/10/28 00:47:38;;;;;;;1.58;0.50;;;13.20;99.90;;;;;;6199394;23;20087;-67
2023/10/28 00:50:12;;;;;;;1.02;0.20;;;13.20;99.90;;;;;;6196950;23;20000;-67
2023/10/28 00:52:47;;;;;;;0.63;0.15;;;13.20;99.90;;;;;;6194577;23;20004;-67
2023/10/28 00:55:14;;;;;;;1.40;0.52;;;13.30;99.90;;;;;;6190377;23;20000;-66
2023/10/28 00:57:41;;;;;;;1.20;0.50;;;13.30;99.90;;;;;;6195785;23;20015;-67
2023/10/28 01:00:08;;;;;;;1.38;0.55;;;13.20;99.90;;;;;;6199142;23;20004;-67
2023/10/28 01:02:39;;;;;;;1.25;0.50;;;13.10;99.90;;;;;;6199676;23;20036;-67
2023/10/28 01:05:09;;;;;;;1.75;0.20;;;13.10;99.90;;;;;;6198964;23;20001;-67
2023/10/28 01:07:36;;;;;;;1.15;0.50;;;13.10;99.90;;;;;;6199795;23;20466;-67
2023/10/28 01:10:03;;;;;;;0.73;0.30;;;13.00;99.90;;;;;;6185755;23;20023;-67
2023/10/28 01:12:29;;;;;;;0.40;0.22;;;12.90;99.90;;;;;;6198832;23;20063;-67
2023/10/28 01:14:54;;;;;;;0.40;0.40;;;12.90;99.90;;;;;;6201244;23;20008;-66
2023/10/28 01:17:25;;;;;;;0.63;0.40;;;12.80;99.90;;;;;;6199894;23;20005;-68
2023/10/28 01:19:51;;;;;;;0.93;0.45;;;12.70;99.90;;;;;;6200687;23;20547;-67
2023/10/28 01:22:17;;;;;;;0.28;0.20;;;12.70;99.90;;;;;;6196569;23;20447;-66
2023/10/28 01:24:43;;;;;;;0.20;0.20;;;12.70;99.90;;;;;;6199264;23;20039;-66
2023/10/28 01:27:09;;;;;;;0.40;0.30;;;12.60;99.90;;;;;;6198730;23;20012;-67
2023/10/28 01:29:35;;;;;;;0.70;0.32;;;12.60;99.90;;;;;;6199592;23;20011;-66
2023/10/28 01:32:04;;;;;;;0.40;0.30;;;12.60;99.90;;;;;;6197785;23;20316;-66
2023/10/28 01:34:31;;;;;;;1.00;0.30;;;12.50;99.90;;;;;;6201588;23;20009;-66
2023/10/28 01:36:58;;;;;;;2.65;0.43;;;12.50;99.90;;;;;;6198038;23;20011;-66
2023/10/28 01:39:23;;;;;;;0.75;0.20;;;12.50;99.90;;;;;;6198849;23;20110;-66
2023/10/28 01:41:49;;;;;;;0.47;0.30;;;12.50;99.90;;;;;;6198119;23;20016;-66
2023/10/28 01:44:16;;;;;;;0.75;0.30;;;12.60;99.90;;;;;;6199843;23;20088;-66
2023/10/28 01:46:42;;;;;;;1.05;0.20;;;12.60;99.90;;;;;;6199703;23;20023;-67
2023/10/28 01:49:10;;;;;;;0.40;0.30;;;12.50;99.90;;;;;;6198738;23;20004;-66
2023/10/28 01:51:36;;;;;;;0.77;0.32;;;12.50;99.90;;;;;;6197013;23;20075;-66
2023/10/28 01:54:02;;;;;;;0.20;0.20;;;12.50;99.90;;;;;;6200619;23;20036;-67
2023/10/28 01:56:28;;;;;;;0.60;0.20;;;12.50;99.90;;;;;;6197841;23;20028;-67
2023/10/28 01:58:54;;;;;;;0.65;0.20;;;12.50;99.90;;;;;;6201130;23;20013;-67
2023/10/28 02:01:23;;;;;;;0.88;0.32;;;12.50;99.90;;;;;;6203692;23;20359;-66
2023/10/28 02:03:50;;;;;;;1.10;0.30;;;12.50;99.90;;;;;;6200904;23;20019;-66
2023/10/28 02:06:15;;;;;;;0.95;0.20;;;12.50;99.90;;;;;;6198123;23;20015;-66
2023/10/28 02:08:42;;;;;;;1.02;0.35;;;12.50;99.90;;;;;;6198634;23;20626;-67
2023/10/28 02:11:08;;;;;;;1.08;0.50;;;12.50;99.90;;;;;;6197818;23;20009;-67
2023/10/28 02:13:35;;;;;;;1.63;0.30;;;12.40;99.90;;;;;;6198769;23;20007;-66
2023/10/28 02:16:01;;;;;;;1.60;0.20;;;12.50;99.90;;;;;;6199065;23;20008;-66
2023/10/28 02:18:27;;;;;;;0.45;0.28;;;12.40;99.90;;;;;;6198708;23;20007;-67
2023/10/28 02:20:54;;;;;;;0.40;0.30;;;12.40;99.90;;;;;;6200306;23;20004;-67
2023/10/28 02:23:19;;;;;;;0.38;0.10;;;12.30;99.90;;;;;;6197361;23;20091;-67
2023/10/28 02:25:45;;;;;;;0.30;0.20;;;12.30;99.90;;;;;;6200244;23;20008;-67
2023/10/28 02:28:11;;;;;;;0.47;0.20;;;12.30;99.90;;;;;;6198990;23;20504;-67
2023/10/28 02:30:40;;;;;;;0.57;0.30;;;12.30;99.90;;;;;;6201534;23;20486;-67
2023/10/28 02:33:06;;;;;;;0.50;0.20;;;12.30;99.90;;;;;;6198311;23;20460;-67
2023/10/28 02:35:33;;;;;;;2.75;0.73;;;12.40;99.90;;;;;;6201601;23;20032;-66
2023/10/28 02:37:59;;;;;;;0.70;0.17;;;12.30;99.90;;;;;;6198001;23;20493;-67
2023/10/28 02:40:24;;;;;;;0.30;0.20;;;12.30;99.90;;;;;;6201206;23;20001;-66
2023/10/28 02:42:50;;;;;;;1.70;0.25;;;12.30;99.90;;;;;;6198849;23;20020;-66
2023/10/28 02:45:15;;;;;;;0.15;0.15;;;12.30;99.90;;;;;;6199506;23;20378;-67
2023/10/28 02:47:41;;;;;;;0.52;0.20;;;12.30;99.90;;;;;;6200787;23;20079;-66
2023/10/28 02:50:08;;;;;;;0.20;0.13;;;12.30;99.90;;;;;;6199701;23;20005;-66
2023/10/28 02:52:34;;;;;;;2.50;0.30;;;12.30;99.90;;;;;;6201078;23;20009;-66
2023/10/28 02:54:59;;;;;;;1.65;0.20;;;12.30;99.90;;;;;;6200818;23;20076;-66
2023/10/28 02:57:25;;;;;;;0.17;0.17;;;12.30;99.90;;;;;;6200147;23;20452;-68
2023/10/28 02:59:51;;;;;;;0.70;0.20;;;12.30;99.90;;;;;;6198864;23;20085;-67
2023/10/28 03:02:16;;;;;;;1.17;0.30;;;12.30;99.90;;;;;;6202031;23;20505;-67
2023/10/28 03:04:42;;;;;;;0.40;0.32;;;12.30;99.90;;;;;;6199679;23;20399;-67
2023/10/28 03:07:08;;;;;;;2.38;0.40;;;12.30;99.90;;;;;;6200005;23;20000;-67
2023/10/28 03:09:33;;;;;;;1.67;0.30;;;12.20;99.90;;;;;;6183208;23;20016;-67
2023/10/28 03:11:59;;;;;;;0.22;0.22;;;12.10;99.90;;;;;;6199672;23;20008;-66
2023/10/28 03:14:25;;;;;;;1.58;0.35;;;12.10;99.90;;;;;;6200978;23;20004;-67
2023/10/28 03:16:51;;;;;;;0.85;0.20;;;12.00;99.90;;;;;;6200277;23;20517;-67
2023/10/28 03:19:16;;;;;;;0.85;0.22;;;12.00;99.90;;;;;;6199638;23;20008;-67
2023/10/28 03:21:42;;;;;;;1.35;0.30;;;12.00;99.90;;;;;;6199573;23;20610;-66
2023/10/28 03:24:08;;;;;;;1.25;0.20;;;12.00;99.90;;;;;;6199359;23;20028;-67
2023/10/28 03:26:33;;;;;;;3.65;0.55;;;12.00;99.90;;;;;;6197939;23;20210;-66
2023/10/28 03:29:00;;;;;;;0.20;0.20;;;12.00;99.90;;;;;;6200398;23;20001;-67
2023/10/28 03:31:26;;;;;;;0.20;0.10;;;11.90;99.90;;;;;;6198337;23;20008;-66
2023/10/28 03:33:52;;;;;;;1.20;0.40;;;11.90;99.90;;;;;;6199422;23;20004;-66
2023/10/28 03:36:18;;;;;;;0.28;0.10;;;11.90;99.90;;;;;;6200125;23;20007;-66
2023/10/28 03:38:43;;;;;;;1.45;0.20;;;11.90;99.90;;;;;;6199611;23;20665;-66
2023/10/28 03:41:11;;;;;;;0.75;0.43;;;11.90;99.90;;;;;;6200353;23;20034;-66
2023/10/28 03:43:37;;;;;;;1.52;0.20;;;11.90;99.90;;;;;;6199208;23;20015;-66
2023/10/28 03:46:03;;;;;;;0.47;0.20;;;11.90;99.90;;;;;;6196834;23;20005;-66
2023/10/28 03:48:30;;;;;;;2.40;0.40;;;11.90;99.90;;;;;;6199376;23;20008;-66
2023/10/28 03:51:02;;;;;;;0.20;0.17;;;11.80;99.90;;;;;;6199408;23;20004;-63
2023/10/28 03:53:28;;;;;;;0.43;0.10;;;11.70;99.90;;;;;;6201147;23;20005;-66
2023/10/28 03:55:54;;;;;;;1.35;0.45;;;11.70;99.90;;;;;;6199464;23;20062;-66
2023/10/28 03:58:20;;;;;;;0.32;0.28;;;11.80;99.90;;;;;;6199225;23;20435;-65
2023/10/28 04:00:48;;;;;;;0.17;0.10;;;11.80;99.90;;;;;;6197808;23;20008;-66
2023/10/28 04:03:14;;;;;;;1.33;0.28;;;11.80;99.90;;;;;;6199095;23;20016;-66
2023/10/28 04:05:40;;;;;;;0.80;0.38;;;11.90;99.90;;;;;;6198524;23;20068;-66
2023/10/28 04:08:05;;;;;;;1.42;0.50;;;11.90;99.90;;;;;;6198809;23;20083;-65
2023/10/28 04:10:31;;;;;;;0.57;0.30;;;11.90;99.90;;;;;;6198945;23;20020;-66
2023/10/28 04:12:56;;;;;;;0.70;0.30;;;11.90;99.90;;;;;;6196943;23;20291;-66
2023/10/28 04:15:22;;;;;;;0.70;0.50;;;11.90;99.90;;;;;;6196814;23;20013;-67
2023/10/28 04:17:48;;;;;;;1.30;0.20;;;12.00;99.90;;;;;;6200327;23;20001;-66
2023/10/28 04:20:14;;;;;;;1.95;0.20;;;11.90;99.90;;;;;;6199747;23;20011;-66
2023/10/28 04:22:40;;;;;;;0.60;0.47;;;12.00;99.90;;;;;;6199469;23;20013;-66
2023/10/28 04:25:06;;;;;;;0.13;0.13;;;11.90;99.90;;;;;;6198149;23;19993;-66
2023/10/28 04:27:32;;;;;;;0.40;0.30;;;11.90;99.90;;;;;;6198925;23;20008;-67
2023/10/28 04:29:58;;;;;;;0.73;0.40;;;11.90;99.90;;;;;;6198771;23;20009;-66
2023/10/28 04:32:24;;;;;;;0.55;0.30;;;11.80;99.90;;;;;;6171221;23;20012;-67
2023/10/28 04:34:51;;;;;;;0.40;0.17;;;11.80;99.90;;;;;;6199934;23;20026;-67
2023/10/28 04:37:17;;;;;;;3.78;2.15;;;11.80;99.90;;;;;;6198378;23;20009;-67
2023/10/28 04:39:42;;;;;;;4.15;2.47;;;11.70;99.90;;;;;;6199991;23;20051;-67
2023/10/28 04:42:08;;;;;;;4.15;1.70;;;11.70;99.90;;;;;;6199690;23;20023;-67
2023/10/28 04:44:34;;;;;;;1.73;1.17;;;11.70;99.90;;;;;;6202792;23;20071;-67
2023/10/28 04:47:01;;;;;;;3.00;1.73;;;11.70;99.90;;;;;;6198057;23;20080;-66
2023/10/28 04:49:27;;;;;;;5.20;2.60;;;11.70;99.90;;;;;;6202646;23;20009;-66
2023/10/28 04:51:54;;;;;;;3.53;2.08;;;11.80;99.90;;;;;;6200218;23;20005;-66
2023/10/28 04:54:20;;;;;;;1.60;0.60;;;11.70;99.90;;;;;;6199103;23;20041;-66
2023/10/28 04:56:45;;;;;;;0.40;0.40;;;11.70;99.90;;;;;;6202139;23;20008;-66
2023/10/28 04:59:11;;;;;;;0.30;0.30;;;11.70;99.90;;;;;;6201478;23;20071;-68
2023/10/28 05:01:37;;;;;;;0.35;0.32;;;11.70;99.90;;;;;;6201817;23;20004;-67
2023/10/28 05:04:03;;;;;;;0.90;0.57;;;11.70;99.90;;;;;;6200791;23;20004;-67
2023/10/28 05:06:29;;;;;;;2.13;0.60;;;11.70;99.90;;;;;;6201428;23;20431;-67
2023/10/28 05:08:54;;;;;;;1.05;0.38;;;11.70;99.90;;;;;;6174836;23;20055;-67
2023/10/28 05:11:20;;;;;;;6.60;0.57;;;11.70;99.90;;;;;;6202642;23;20096;-67
2023/10/28 05:13:45;;;;;;;0.30;0.30;;;11.60;99.90;;;;;;6201604;23;20333;-67
2023/10/28 05:16:11;;;;;;;1.55;0.28;;;11.60;99.90;;;;;;6201294;23;20036;-66
2023/10/28 05:18:37;;;;;;;1.75;0.70;;;11.60;99.90;;;;;;6199489;23;20009;-66
2023/10/28 05:21:02;;;;;;;1.20;0.57;;;11.50;99.90;;;;;;6201608;23;20044;-66
2023/10/28 05:23:28;;;;;;;0.43;0.35;;;11.50;99.90;;;;;;6198228;23;20526;-66
2023/10/28 05:25:54;;;;;;;0.77;0.40;;;11.40;99.90;;;;;;6200223;23;20020;-66
2023/10/28 05:28:20;;;;;;;3.38;0.55;;;11.40;99.90;;;;;;6198652;23;20008;-66
2023/10/28 05:30:47;;;;;;;1.52;0.47;;;11.40;99.90;;;;;;6200571;23;20063;-66
2023/10/28 05:33:13;;;;;;;1.75;0.70;;;11.40;99.90;;;;;;6201961;23;20464;-66
2023/10/28 05:35:39;;;;;;;0.63;0.35;;;11.50;99.90;;;;;;6201311;23;20001;-66
2023/10/28 05:38:05;;;;;;;1.50;0.50;;;11.40;99.90;;;;;;6201043;23;20005;-66
2023/10/28 05:40:31;;;;;;;0.65;0.20;;;11.40;99.90;;;;;;6199514;23;20339;-66
2023/10/28 05:42:56;;;;;;;0.90;0.47;;;11.40;99.90;;;;;;6195762;23;20864;-67
2023/10/28 05:45:22;;;;;;;0.98;0.40;;;11.40;99.90;;;;;;6200342;23;20012;-66
2023/10/28 05:47:48;;;;;;;2.83;0.30;;;11.40;99.90;;;;;;6200193;23;20009;-67
2023/10/28 05:50:13;;;;;;;1.60;0.50;;;11.30;99.90;;;;;;6198575;23;20027;-66
2023/10/28 05:52:39;;;;;;;1.23;0.70;;;11.30;99.90;;;;;;6199970;23;20721;-66
2023/10/28 05:55:13;;;;;;;0.85;0.52;;;11.30;99.90;;;;;;6199705;23;20399;-67
2023/10/28 05:57:39;;;;;;;2.58;0.50;;;11.40;99.90;;;;;;6198533;23;20072;-67
2023/10/28 06:00:10;;;;;;;0.73;0.40;;;11.40;99.90;;;;;;6200521;23;20005;-67
2023/10/28 06:02:39;;;;;;;0.88;0.40;;;11.50;99.90;;;;;;6202199;23;20098;-67
2023/10/28 06:05:06;;;;;;;0.50;0.32;;;11.50;99.90;;;;;;6200413;23;20039;-67
2023/10/28 06:07:32;;;;;;;1.55;0.40;;;11.50;99.90;;;;;;6199760;23;20095;-67
2023/10/28 06:09:58;;;;;;;2.28;0.40;;;11.50;99.90;;;;;;6198823;23;20062;-67
2023/10/28 06:12:27;;;;;;;4.13;0.30;;;11.60;99.90;;;;;;6199350;23;20005;-67
2023/10/28 06:14:53;;;;;;;0.30;0.20;;;11.60;99.90;;;;;;6197634;23;20683;-67
2023/10/28 06:17:20;;;;;;;1.88;0.98;;;11.60;99.90;;;;;;6200154;23;20007;-67
2023/10/28 06:19:46;;;;;;;1.45;0.40;;;11.70;99.90;;;;;;6200310;23;20005;-67
2023/10/28 06:22:12;;;;;;;13.52;1.50;;;11.80;99.90;;;;;;6199478;23;20005;-68
2023/10/28 06:24:38;;;;;;;3.47;0.50;;;11.90;99.90;;;;;;6200267;23;20024;-67
2023/10/28 06:27:05;;;;;;;2.55;0.52;;;12.00;99.90;;;;;;6202094;23;20016;-68
2023/10/28 06:29:31;;;;;;;2.25;0.47;;;12.00;99.90;;;;;;6198123;23;20032;-67
2023/10/28 06:31:59;;;;;;;0.70;0.30;;;12.20;99.90;;;;;;6195825;23;20355;-67
2023/10/28 06:34:28;;;;;;;0.35;0.35;;;12.30;99.90;;;;;;6171375;23;20036;-67
2023/10/28 06:36:55;;;;;;;0.60;0.40;;;12.50;99.90;;;;;;6197959;23;20138;-67
2023/10/28 06:39:21;;;;;;;0.43;0.30;;;12.60;99.90;;;;;;6201406;23;20383;-67
2023/10/28 06:41:47;;;;;;;1.30;0.50;;;12.70;99.90;;;;;;6200164;23;20143;-67
2023/10/28 06:44:13;;;;;;;2.50;0.30;;;12.90;99.90;;;;;;6196771;23;20017;-67
2023/10/28 06:46:38;;;;;;;1.30;0.22;;;13.10;99.90;;;;;;6199457;23;20740;-67
2023/10/28 06:49:05;;;;;;;1.38;0.40;;;13.20;99.90;;;;;;6199972;23;20008;-66
2023/10/28 06:51:32;;;;;;;1.92;0.28;;;13.40;99.90;;;;;;6198956;23;20338;-66
2023/10/28 06:53:58;;;;;;;4.70;0.47;;;13.50;99.90;;;;;;6198623;23;20009;-67
2023/10/28 06:56:25;;;;;;;0.20;0.20;;;13.60;99.90;;;;;;6200432;23;20013;-66
2023/10/28 06:58:51;;;;;;;1.38;0.30;;;13.80;99.90;;;;;;6199503;23;20346;-66
2023/10/28 07:01:18;;;;;;;1.38;0.13;;;13.90;99.90;;;;;;6171938;23;20031;-67
2023/10/28 07:03:44;;;;;;;2.08;0.50;;;14.00;99.90;;;;;;6198937;23;20509;-67
2023/10/28 07:06:14;;;;;;;0.43;0.25;;;14.10;99.90;;;;;;6199820;23;20008;-67
2023/10/28 07:08:44;;;;;;;0.45;0.10;;;14.30;99.90;;;;;;6199608;23;20009;-67
2023/10/28 07:11:13;;;;;;;0.82;0.30;;;14.50;99.90;;;;;;6198152;23;20008;-67
2023/10/28 07:13:39;;;;;;;1.10;0.30;;;14.60;99.90;;;;;;6198123;23;20031;-67
2023/10/28 07:16:05;;;;;;;0.40;0.20;;;14.70;99.90;;;;;;6198651;23;20004;-68
2023/10/28 07:18:32;;;;;;;0.80;0.30;;;14.80;99.90;;;;;;6196842;23;20184;-68
2023/10/28 07:20:58;;;;;;;0.20;0.20;;;14.70;99.90;;;;;;6196482;23;20554;-67
2023/10/28 07:23:27;;;;;;;0.95;0.20;;;14.80;99.90;;;;;;6197291;23;20020;-67
2023/10/28 07:25:58;;;;;;;0.25;0.25;;;14.80;99.90;;;;;;6197912;23;20024;-67
2023/10/28 07:28:24;;;;;;;1.48;0.20;;;14.80;99.90;;;;;;6197594;23;20032;-66
2023/10/28 07:30:51;;;;;;;2.50;0.20;;;14.70;99.90;;;;;;6197336;23;20461;-67
2023/10/28 07:33:21;;;;;;;0.28;0.20;;;14.70;99.90;;;;;;6191638;23;20083;-66
2023/10/28 07:35:48;;;;;;;0.38;0.22;;;14.80;99.90;;;;;;6197709;23;20367;-66
2023/10/28 07:38:18;;;;;;;0.85;0.20;;;14.90;99.90;;;;;;6196127;23;20644;-67
2023/10/28 07:40:44;;;;;;;1.73;0.40;;;15.10;99.90;;;;;;6198600;23;20015;-67
2023/10/28 07:43:11;;;;;;;1.50;0.22;;;15.20;99.90;;;;;;6196373;23;20008;-68
2023/10/28 07:45:38;;;;;;;0.32;0.20;;;15.30;99.90;;;;;;6198726;23;20016;-66
2023/10/28 07:48:06;;;;;;;1.00;0.30;;;15.40;99.90;;;;;;6197614;23;20338;-67
2023/10/28 07:50:39;;;;;;;2.10;0.20;;;15.40;99.90;;;;;;6195420;23;20601;-67
2023/10/28 07:53:05;;;;;;;1.55;0.40;;;15.60;99.90;;;;;;6199559;23;20473;-66
2023/10/28 07:55:32;;;;;;;1.30;0.30;;;15.60;99.90;;;;;;6201189;23;20016;-66
2023/10/28 07:57:57;;;;;;;2.58;0.40;;;15.60;99.90;;;;;;6198867;23;20069;-68
2023/10/28 08:00:23;;;;;;;1.98;0.40;;;15.60;99.90;;;;;;6200030;23;20016;-67
2023/10/28 08:02:50;;;;;;;0.30;0.20;;;15.70;99.90;;;;;;6199781;23;20016;-68
2023/10/28 08:05:16;;;;;;;0.32;0.22;;;15.80;99.90;;;;;;6197183;23;20000;-68
2023/10/28 08:07:42;;;;;;;2.72;0.30;;;16.00;99.90;;;;;;6198432;23;20051;-66
2023/10/28 08:10:08;;;;;;;0.52;0.30;;;16.20;99.90;;;;;;6200212;23;20023;-67
2023/10/28 08:12:34;;;;;;;0.00;0.00;;;16.40;99.90;;;;;;6200333;23;20028;-67
2023/10/28 08:15:02;;;;;;;1.23;0.20;;;16.50;99.90;;;;;;6198291;23;20028;-67
2023/10/28 08:17:30;;;;;;;0.20;0.20;;;16.60;99.90;;;;;;6198563;23;20015;-67
2023/10/28 08:19:56;;;;;;;0.88;0.17;;;16.80;99.90;;;;;;6197577;23;20001;-67
2023/10/28 08:22:22;;;;;;;0.88;0.40;;;16.70;99.90;;;;;;6169045;23;20023;-66
2023/10/28 08:24:48;;;;;;;1.17;0.40;;;16.60;99.90;;;;;;6200133;23;20386;-67
2023/10/28 08:27:14;;;;;;;2.20;1.30;;;16.60;99.90;;;;;;6199433;23;20031;-67
2023/10/28 08:29:39;;;;;;;0.57;0.30;;;16.50;99.90;;;;;;6199301;23;20458;-68
2023/10/28 08:32:06;;;;;;;1.13;0.25;;;16.50;99.90;;;;;;6196258;23;20103;-68
2023/10/28 08:34:33;;;;;;;0.43;0.20;;;16.30;99.90;;;;;;6194706;23;20334;-68
2023/10/28 08:36:59;;;;;;;1.00;0.10;;;16.20;99.90;;;;;;6197455;23;20379;-68
2023/10/28 08:39:25;;;;;;;0.52;0.22;;;16.20;99.90;;;;;;6173666;23;20012;-67
2023/10/28 08:41:51;;;;;;;0.55;0.40;;;16.20;99.90;;;;;;6198934;23;20092;-67
2023/10/28 08:44:20;;;;;;;0.50;0.20;;;16.20;99.90;;;;;;6200480;23;20409;-67
2023/10/28 08:46:49;;;;;;;0.17;0.15;;;16.40;99.90;;;;;;6198203;23;20011;-67
2023/10/28 08:49:17;;;;;;;1.70;0.30;;;16.60;99.90;;;;;;6199112;23;20869;-67
2023/10/28 08:51:48;;;;;;;0.30;0.25;;;16.80;99.90;;;;;;6199736;23;20000;-67
2023/10/28 08:54:16;;;;;;;0.40;0.20;;;16.90;99.90;;;;;;6196587;23;20015;-67
2023/10/28 08:56:43;;;;;;;0.40;0.30;;;16.90;99.90;;;;;;6195669;23;20032;-67
2023/10/28 08:59:12;;;;;;;0.28;0.15;;;16.70;99.90;;;;;;6198130;23;20008;-68
2023/10/28 09:01:39;;;;;;;0.35;0.10;;;16.60;99.90;;;;;;6196266;23;20040;-68
2023/10/28 09:04:05;;;;;;;0.45;0.20;;;16.60;99.90;;;;;;6199061;23;20091;-66
2023/10/28 09:06:32;;;;;;;2.53;0.40;;;16.50;99.90;;;;;;6198734;23;20346;-66
2023/10/28 09:08:58;;;;;;;0.85;0.30;;;16.40;99.90;;;;;;6198030;23;20052;-66
2023/10/28 09:11:25;;;;;;;0.68;0.30;;;16.30;99.90;;;;;;6199987;23;20009;-66
2023/10/28 09:13:51;;;;;;;1.38;0.28;;;16.30;99.90;;;;;;6194801;23;20024;-67
2023/10/28 09:16:17;;;;;;;1.45;0.20;;;16.20;99.90;;;;;;6198659;23;20040;-66
2023/10/28 09:18:43;;;;;;;2.10;0.20;;;16.20;99.90;;;;;;6199390;23;20016;-66
2023/10/28 09:21:11;;;;;;;0.15;0.15;;;16.20;99.90;;;;;;6198571;23;20008;-68
2023/10/28 09:23:37;;;;;;;0.35;0.30;;;16.40;99.90;;;;;;6197493;23;20019;-68
2023/10/28 09:26:04;;;;;;;0.30;0.20;;;16.40;99.90;;;;;;6199689;23;20563;-68
2023/10/28 09:28:30;;;;;;;0.40;0.20;;;16.40;99.90;;;;;;6173367;23;20492;-68
2023/10/28 09:30:57;;;;;;;0.40;0.30;;;16.50;99.90;;;;;;6199372;23;20015;-69
2023/10/28 09:33:23;;;;;;;1.00;0.40;;;16.60;99.90;;;;;;6201480;23;20000;-68
2023/10/28 09:35:53;;;;;;;1.67;0.35;;;16.60;99.90;;;;;;6199263;23;20039;-68
2023/10/28 09:38:20;;;;;;;0.70;0.38;;;16.60;99.90;;;;;;6198927;23;20023;-68
2023/10/28 09:40:46;;;;;;;0.93;0.30;;;16.50;99.90;;;;;;6201015;23;20004;-66
2023/10/28 09:43:15;;;;;;;0.50;0.20;;;16.40;99.90;;;;;;6199186;23;20040;-66
2023/10/28 09:45:45;;;;;;;0.50;0.30;;;16.30;99.90;;;;;;6200097;23;19997;-67
2023/10/28 09:48:12;;;;;;;0.10;0.10;;;16.30;99.90;;;;;;6201531;23;19997;-66
2023/10/28 09:50:49;;;;;;;0.98;0.20;;;16.30;99.90;;;;;;6200192;23;20011;-66
2023/10/28 09:53:23;;;;;;;0.90;0.20;;;16.30;99.90;;;;;;6170877;23;20019;-66
2023/10/28 09:55:54;;;;;;;0.98;0.28;;;16.30;99.90;;;;;;6197304;23;20005;-67
2023/10/28 09:58:27;;;;;;;2.77;0.40;;;16.30;99.90;;;;;;6199174;23;20012;-66
2023/10/28 10:01:02;;;;;;;0.32;0.22;;;16.20;99.90;;;;;;6199225;23;20000;-67
2023/10/28 10:03:47;;;;;;;0.30;0.20;;;16.20;99.90;;;;;;6197317;23;20039;-66
2023/10/28 10:06:13;;;;;;;0.98;0.32;;;16.20;99.90;;;;;;6198361;23;20027;-67
2023/10/28 10:08:52;;;;;;;1.00;0.38;;;16.10;99.90;;;;;;6197764;23;20005;-66
2023/10/28 10:11:26;;;;;;;0.63;0.30;;;16.10;99.90;;;;;;6173873;23;20016;-66
2023/10/28 10:13:52;;;;;;;1.35;0.25;;;16.10;99.90;;;;;;6201515;23;20455;-66
2023/10/28 10:16:52;;;;;;;3.05;0.30;;;16.10;99.90;;;;;;6197504;23;20080;-67
2023/10/28 10:19:22;;;;;;;1.27;0.30;;;16.10;99.90;;;;;;6188605;23;20142;-66
2023/10/28 10:21:52;;;;;;;0.25;0.20;;;16.10;99.90;;;;;;6197132;23;20008;-68
2023/10/28 10:24:19;;;;;;;0.95;0.40;;;16.10;99.90;;;;;;6198014;23;20004;-69
2023/10/28 10:26:56;;;;;;;1.40;0.40;;;16.20;99.90;;;;;;6199382;23;20142;-67
2023/10/28 10:29:29;;;;;;;1.23;0.40;;;16.40;99.90;;;;;;6198547;23;20039;-69
2023/10/28 10:31:58;;;;;;;0.22;0.20;;;16.40;99.90;;;;;;6198124;23;20000;-67
2023/10/28 10:34:39;;;;;;;0.20;0.20;;;16.40;99.90;;;;;;6199755;23;20011;-69
2023/10/28 10:37:06;;;;;;;0.40;0.37;;;16.40;99.90;;;;;;6196870;23;20548;-68
2023/10/28 10:39:47;;;;;;;0.77;0.22;;;16.30;99.90;;;;;;6198465;23;20014;-68
2023/10/28 10:42:13;;;;;;;1.98;0.40;;;16.20;99.90;;;;;;6199150;23;20080;-68
2023/10/28 10:44:40;;;;;;;1.33;0.50;;;16.10;99.90;;;;;;6199124;23;20004;-69
2023/10/28 10:47:08;;;;;;;0.45;0.45;;;16.10;99.90;;;;;;6198700;23;20361;-68
2023/10/28 10:49:36;;;;;;;1.20;0.32;;;16.10;99.90;;;;;;6198472;23;20009;-66
2023/10/28 10:52:03;;;;;;;1.05;0.20;;;16.10;99.90;;;;;;6198233;23;20425;-69
2023/10/28 10:54:39;;;;;;;1.17;0.50;;;16.20;99.90;;;;;;6201612;23;20004;-65
2023/10/28 10:57:06;;;;;;;0.17;0.17;;;16.20;99.90;;;;;;6197005;23;20374;-66
2023/10/28 10:59:34;;;;;;;0.40;0.40;;;16.10;99.90;;;;;;6196061;23;20024;-66
2023/10/28 11:02:00;;;;;;;0.65;0.40;;;16.20;99.90;;;;;;6193502;23;20339;-66
2023/10/28 11:04:28;;;;;;;0.80;0.60;;;16.20;99.90;;;;;;6167528;23;20015;-65
2023/10/28 11:06:54;;;;;;;1.95;0.40;;;16.20;99.90;;;;;;6195147;23;20000;-66
2023/10/28 11:09:21;;;;;;;0.90;0.40;;;16.30;99.90;;;;;;6199397;23;20016;-66
2023/10/28 11:11:46;;;;;;;1.02;0.38;;;16.30;99.90;;;;;;6171957;23;20021;-66
2023/10/28 11:14:12;;;;;;;0.30;0.30;;;16.30;99.90;;;;;;6198507;23;20064;-66
2023/10/28 11:16:42;;;;;;;0.75;0.30;;;16.30;99.90;;;;;;6193714;23;20702;-65
2023/10/28 11:19:10;;;;;;;2.85;0.30;;;16.20;99.90;;;;;;6194120;23;20026;-66
2023/10/28 11:21:36;;;;;;;0.77;0.40;;;16.30;99.90;;;;;;6196126;23;20104;-66
2023/10/28 11:24:05;;;;;;;1.73;0.30;;;16.50;99.90;;;;;;6200095;23;20086;-66
2023/10/28 11:26:31;;;;;;;0.73;0.30;;;16.60;99.90;;;;;;6199503;23;20005;-66
2023/10/28 11:28:59;;;;;;;2.33;0.43;;;16.60;99.90;;;;;;6197607;23;20490;-65
2023/10/28 11:31:28;;;;;;;2.45;0.57;;;16.60;99.90;;;;;;6195548;23;20356;-66
2023/10/28 11:33:55;;;;;;;3.47;0.50;;;16.70;99.90;;;;;;6200374;23;20012;-66
2023/10/28 11:36:22;;;;;;;0.50;0.30;;;16.60;99.90;;;;;;6194796;23;20058;-66
2023/10/28 11:38:48;;;;;;;1.60;0.80;;;16.50;99.90;;;;;;6198491;23;20482;-66
2023/10/28 11:41:14;;;;;;;14.57;2.17;;;16.40;99.90;;;;;;6193695;23;20063;-66
2023/10/28 11:43:40;;;;;;;0.25;0.25;;;16.40;99.90;;;;;;6194835;23;20048;-66
2023/10/28 11:46:06;;;;;;;1.65;0.85;;;16.30;99.90;;;;;;6171560;23;20087;-66
2023/10/28 11:48:34;;;;;;;0.50;0.30;;;16.30;99.90;;;;;;6198761;23;20389;-65
2023/10/28 11:51:01;;;;;;;0.20;0.20;;;16.30;99.90;;;;;;6198694;23;20035;-65
2023/10/28 11:53:28;;;;;;;3.58;0.20;;;16.30;99.90;;;;;;6198839;23;20453;-66
2023/10/28 11:55:55;;;;;;;0.50;0.30;;;16.30;99.90;;;;;;6196209;23;20012;-65
2023/10/28 11:58:24;;;;;;;1.27;0.32;;;16.30;99.90;;;;;;6194946;23;20012;-66
2023/10/28 12:00:53;;;;;;;0.30;0.20;;;16.30;99.90;;;;;;6196034;23;20015;-67
2023/10/28 12:03:20;;;;;;;0.68;0.30;;;16.50;99.90;;;;;;6191871;23;20130;-67
2023/10/28 12:05:45;;;;;;;1.05;0.30;;;16.70;99.90;;;;;;6192906;23;20753;-66
2023/10/28 12:08:14;;;;;;;1.20;0.30;;;16.80;99.90;;;;;;6195076;23;20004;-67
2023/10/28 12:10:43;;;;;;;0.40;0.40;;;16.80;99.90;;;;;;6193967;23;20012;-66
2023/10/28 12:13:18;;;;;;;0.73;0.25;;;16.70;99.90;;;;;;6164071;23;20004;-66
2023/10/28 12:15:44;;;;;;;0.40;0.20;;;16.60;99.90;;;;;;6192816;23;20014;-64
2023/10/28 12:18:10;;;;;;;1.80;0.20;;;16.60;99.90;;;;;;6195265;23;20005;-64
2023/10/28 12:20:36;;;;;;;0.90;0.30;;;16.60;99.90;;;;;;6196291;23;20468;-64
2023/10/28 12:23:02;;;;;;;3.10;0.40;;;16.60;99.90;;;;;;6166078;23;20012;-66
2023/10/28 12:25:29;;;;;;;0.63;0.50;;;16.50;99.90;;;;;;6194711;23;20008;-67
2023/10/28 12:27:55;;;;;;;0.45;0.20;;;16.60;99.90;;;;;;6191239;23;20098;-69
2023/10/28 12:30:21;;;;;;;1.33;0.50;;;16.70;99.90;;;;;;6189122;23;20001;-69
2023/10/28 12:32:50;;;;;;;0.63;0.35;;;16.90;99.90;;;;;;6195698;23;20013;-66
2023/10/28 12:35:17;;;;;;;0.38;0.30;;;16.90;99.90;;;;;;6196741;23;20447;-67
2023/10/28 12:37:43;;;;;;;0.45;0.30;;;16.80;99.90;;;;;;6198567;23;20005;-67
2023/10/28 12:40:09;;;;;;;0.93;0.30;;;16.60;99.90;;;;;;6196508;23;20011;-66
2023/10/28 12:42:36;;;;;;;1.85;0.30;;;16.60;99.90;;;;;;6195229;23;20091;-66
2023/10/28 12:45:06;;;;;;;0.88;0.43;;;16.50;99.90;;;;;;6198001;23;20076;-67
2023/10/28 12:47:32;;;;;;;0.60;0.20;;;16.40;99.90;;;;;;6197087;23;20005;-67